sensor_id;sensor_type;location;lat;lon;timestamp;P1;durP1;ratioP1;P2;durP2;ratioP2
57663;SDS011;43493;53.098;6.064;2022-09-13T00:00:27;26.17;;;21.53;;
57663;SDS011;43493;53.098;6.064;2022-09-13T00:02:53;29.03;;;23.70;;
57663;SDS011;43493;53.098;6.064;2022-09-13T00:05:18;28.47;;;24.20;;
57663;SDS011;43493;53.098;6.064;2022-09-13T00:07:44;34.20;;;28.20;;
57663;SDS011;43493;53.098;6.064;2022-09-13T00:10:10;31.53;;;25.33;;
57663;SDS011;43493;53.098;6.064;2022-09-13T00:12:36;30.10;;;25.67;;
57663;SDS011;43493;53.098;6.064;2022-09-13T00:15:02;32.00;;;27.57;;
57663;SDS011;43493;53.098;6.064;2022-09-13T00:17:28;30.57;;;25.43;;
57663;SDS011;43493;53.098;6.064;2022-09-13T00:19:53;32.13;;;26.63;;
57663;SDS011;43493;53.098;6.064;2022-09-13T00:22:19;25.13;;;22.37;;
57663;SDS011;43493;53.098;6.064;2022-09-13T00:24:45;26.57;;;22.67;;
57663;SDS011;43493;53.098;6.064;2022-09-13T00:27:10;26.80;;;22.03;;
57663;SDS011;43493;53.098;6.064;2022-09-13T00:29:37;26.90;;;21.90;;
57663;SDS011;43493;53.098;6.064;2022-09-13T00:32:03;26.97;;;21.07;;
57663;SDS011;43493;53.098;6.064;2022-09-13T00:34:29;24.27;;;20.13;;
57663;SDS011;43493;53.098;6.064;2022-09-13T00:36:54;25.40;;;18.97;;
57663;SDS011;43493;53.098;6.064;2022-09-13T00:39:20;20.97;;;18.67;;
57663;SDS011;43493;53.098;6.064;2022-09-13T00:41:46;24.73;;;19.23;;
57663;SDS011;43493;53.098;6.064;2022-09-13T00:45:13;23.40;;;19.17;;
57663;SDS011;43493;53.098;6.064;2022-09-13T00:47:22;19.07;;;16.83;;
57663;SDS011;43493;53.098;6.064;2022-09-13T00:49:55;20.33;;;16.50;;
57663;SDS011;43493;53.098;6.064;2022-09-13T00:52:34;19.17;;;16.50;;
57663;SDS011;43493;53.098;6.064;2022-09-13T00:55:10;16.97;;;15.17;;
57663;SDS011;43493;53.098;6.064;2022-09-13T00:57:49;19.50;;;15.83;;
57663;SDS011;43493;53.098;6.064;2022-09-13T01:00:16;20.30;;;16.90;;
57663;SDS011;43493;53.098;6.064;2022-09-13T01:02:45;17.77;;;15.00;;
57663;SDS011;43493;53.098;6.064;2022-09-13T01:05:18;20.70;;;15.40;;
57663;SDS011;43493;53.098;6.064;2022-09-13T01:07:47;18.17;;;14.47;;
57663;SDS011;43493;53.098;6.064;2022-09-13T01:10:13;18.83;;;14.90;;
57663;SDS011;43493;53.098;6.064;2022-09-13T01:15:11;15.27;;;13.67;;
57663;SDS011;43493;53.098;6.064;2022-09-13T01:17:36;15.47;;;12.97;;
57663;SDS011;43493;53.098;6.064;2022-09-13T01:20:04;19.63;;;13.57;;
57663;SDS011;43493;53.098;6.064;2022-09-13T01:22:50;14.07;;;12.60;;
57663;SDS011;43493;53.098;6.064;2022-09-13T01:28:28;15.80;;;13.30;;
57663;SDS011;43493;53.098;6.064;2022-09-13T01:33:59;15.98;;;13.73;;
57663;SDS011;43493;53.098;6.064;2022-09-13T01:39:16;15.03;;;11.67;;
57663;SDS011;43493;53.098;6.064;2022-09-13T01:44:53;17.43;;;13.23;;
57663;SDS011;43493;53.098;6.064;2022-09-13T01:47:32;15.80;;;13.17;;
57663;SDS011;43493;53.098;6.064;2022-09-13T01:50:22;13.90;;;11.53;;
57663;SDS011;43493;53.098;6.064;2022-09-13T01:53:02;15.83;;;11.67;;
57663;SDS011;43493;53.098;6.064;2022-09-13T01:55:57;17.17;;;12.80;;
57663;SDS011;43493;53.098;6.064;2022-09-13T02:03:42;14.50;;;12.43;;
57663;SDS011;43493;53.098;6.064;2022-09-13T02:06:12;15.80;;;13.53;;
57663;SDS011;43493;53.098;6.064;2022-09-13T02:08:45;13.90;;;11.63;;
57663;SDS011;43493;53.098;6.064;2022-09-13T02:11:15;18.27;;;12.87;;
57663;SDS011;43493;53.098;6.064;2022-09-13T02:14:06;14.93;;;12.47;;
57663;SDS011;43493;53.098;6.064;2022-09-13T02:16:40;14.93;;;12.10;;
57663;SDS011;43493;53.098;6.064;2022-09-13T02:19:19;14.60;;;13.10;;
57663;SDS011;43493;53.098;6.064;2022-09-13T02:21:50;17.40;;;12.77;;
57663;SDS011;43493;53.098;6.064;2022-09-13T02:24:23;16.77;;;13.77;;
57663;SDS011;43493;53.098;6.064;2022-09-13T02:26:54;20.23;;;16.20;;
57663;SDS011;43493;53.098;6.064;2022-09-13T02:29:23;15.80;;;13.93;;
57663;SDS011;43493;53.098;6.064;2022-09-13T02:31:57;15.80;;;13.73;;
57663;SDS011;43493;53.098;6.064;2022-09-13T02:34:51;16.47;;;13.53;;
57663;SDS011;43493;53.098;6.064;2022-09-13T02:37:25;19.00;;;13.40;;
57663;SDS011;43493;53.098;6.064;2022-09-13T02:39:58;20.43;;;14.90;;
57663;SDS011;43493;53.098;6.064;2022-09-13T02:45:03;19.63;;;15.67;;
57663;SDS011;43493;53.098;6.064;2022-09-13T02:55:30;20.17;;;16.63;;
57663;SDS011;43493;53.098;6.064;2022-09-13T02:58:20;19.93;;;14.70;;
57663;SDS011;43493;53.098;6.064;2022-09-13T03:01:07;17.13;;;14.33;;
57663;SDS011;43493;53.098;6.064;2022-09-13T03:03:33;17.87;;;14.60;;
57663;SDS011;43493;53.098;6.064;2022-09-13T03:05:58;13.97;;;11.37;;
57663;SDS011;43493;53.098;6.064;2022-09-13T03:08:24;12.83;;;9.27;;
57663;SDS011;43493;53.098;6.064;2022-09-13T03:16:18;5.18;;;2.65;;
57663;SDS011;43493;53.098;6.064;2022-09-13T03:22:06;5.70;;;1.87;;
57663;SDS011;43493;53.098;6.064;2022-09-13T03:28:10;6.63;;;1.90;;
57663;SDS011;43493;53.098;6.064;2022-09-13T03:30:47;3.43;;;2.13;;
57663;SDS011;43493;53.098;6.064;2022-09-13T03:33:19;5.60;;;1.60;;
57663;SDS011;43493;53.098;6.064;2022-09-13T03:36:18;5.10;;;2.00;;
57663;SDS011;43493;53.098;6.064;2022-09-13T03:38:55;5.07;;;2.10;;
57663;SDS011;43493;53.098;6.064;2022-09-13T03:41:29;9.20;;;2.37;;
57663;SDS011;43493;53.098;6.064;2022-09-13T03:44:01;7.93;;;2.40;;
57663;SDS011;43493;53.098;6.064;2022-09-13T03:46:37;5.87;;;2.20;;
57663;SDS011;43493;53.098;6.064;2022-09-13T03:49:07;5.60;;;2.17;;
57663;SDS011;43493;53.098;6.064;2022-09-13T03:51:36;7.90;;;2.00;;
57663;SDS011;43493;53.098;6.064;2022-09-13T03:54:04;5.87;;;2.00;;
57663;SDS011;43493;53.098;6.064;2022-09-13T03:56:33;6.20;;;1.97;;
57663;SDS011;43493;53.098;6.064;2022-09-13T03:58:59;4.10;;;1.80;;
57663;SDS011;43493;53.098;6.064;2022-09-13T04:01:25;4.83;;;1.70;;
57663;SDS011;43493;53.098;6.064;2022-09-13T04:03:51;4.90;;;1.83;;
57663;SDS011;43493;53.098;6.064;2022-09-13T04:06:17;4.73;;;2.13;;
57663;SDS011;43493;53.098;6.064;2022-09-13T04:08:42;6.80;;;2.10;;
57663;SDS011;43493;53.098;6.064;2022-09-13T04:11:08;5.57;;;1.70;;
57663;SDS011;43493;53.098;6.064;2022-09-13T04:13:35;4.97;;;1.83;;
57663;SDS011;43493;53.098;6.064;2022-09-13T04:16:05;2.90;;;1.60;;
57663;SDS011;43493;53.098;6.064;2022-09-13T04:18:31;6.27;;;1.90;;
57663;SDS011;43493;53.098;6.064;2022-09-13T04:20:58;5.70;;;1.50;;
57663;SDS011;43493;53.098;6.064;2022-09-13T04:23:26;3.47;;;1.30;;
57663;SDS011;43493;53.098;6.064;2022-09-13T04:25:53;5.43;;;1.57;;
57663;SDS011;43493;53.098;6.064;2022-09-13T04:28:19;6.33;;;1.50;;
57663;SDS011;43493;53.098;6.064;2022-09-13T04:30:46;7.73;;;1.60;;
57663;SDS011;43493;53.098;6.064;2022-09-13T04:33:13;5.33;;;1.60;;
57663;SDS011;43493;53.098;6.064;2022-09-13T04:35:41;5.87;;;1.43;;
57663;SDS011;43493;53.098;6.064;2022-09-13T04:38:07;5.43;;;1.20;;
57663;SDS011;43493;53.098;6.064;2022-09-13T04:40:33;5.77;;;1.50;;
57663;SDS011;43493;53.098;6.064;2022-09-13T04:43:00;5.53;;;1.80;;
57663;SDS011;43493;53.098;6.064;2022-09-13T04:45:26;6.37;;;1.50;;
57663;SDS011;43493;53.098;6.064;2022-09-13T04:47:53;7.13;;;1.77;;
57663;SDS011;43493;53.098;6.064;2022-09-13T04:50:20;5.30;;;1.70;;
57663;SDS011;43493;53.098;6.064;2022-09-13T04:52:46;8.53;;;1.70;;
57663;SDS011;43493;53.098;6.064;2022-09-13T04:55:12;5.37;;;1.40;;
57663;SDS011;43493;53.098;6.064;2022-09-13T04:57:39;6.27;;;1.70;;
57663;SDS011;43493;53.098;6.064;2022-09-13T05:00:05;7.27;;;1.50;;
57663;SDS011;43493;53.098;6.064;2022-09-13T05:02:32;7.93;;;1.90;;
57663;SDS011;43493;53.098;6.064;2022-09-13T05:04:58;5.70;;;1.50;;
57663;SDS011;43493;53.098;6.064;2022-09-13T05:07:24;7.80;;;1.70;;
57663;SDS011;43493;53.098;6.064;2022-09-13T05:09:49;5.83;;;1.70;;
57663;SDS011;43493;53.098;6.064;2022-09-13T05:12:15;6.23;;;1.57;;
57663;SDS011;43493;53.098;6.064;2022-09-13T05:14:41;4.60;;;1.63;;
57663;SDS011;43493;53.098;6.064;2022-09-13T05:17:07;8.10;;;2.00;;
57663;SDS011;43493;53.098;6.064;2022-09-13T05:19:33;5.13;;;1.53;;
57663;SDS011;43493;53.098;6.064;2022-09-13T05:21:59;5.20;;;1.80;;
57663;SDS011;43493;53.098;6.064;2022-09-13T05:24:25;5.00;;;1.87;;
57663;SDS011;43493;53.098;6.064;2022-09-13T05:26:51;5.13;;;1.80;;
57663;SDS011;43493;53.098;6.064;2022-09-13T05:29:17;5.13;;;1.80;;
57663;SDS011;43493;53.098;6.064;2022-09-13T05:31:43;10.37;;;1.93;;
57663;SDS011;43493;53.098;6.064;2022-09-13T05:34:10;6.93;;;2.00;;
57663;SDS011;43493;53.098;6.064;2022-09-13T05:36:38;10.20;;;2.67;;
57663;SDS011;43493;53.098;6.064;2022-09-13T05:39:06;4.13;;;2.00;;
57663;SDS011;43493;53.098;6.064;2022-09-13T05:41:36;9.70;;;2.20;;
57663;SDS011;43493;53.098;6.064;2022-09-13T05:44:01;10.53;;;2.33;;
57663;SDS011;43493;53.098;6.064;2022-09-13T05:46:27;8.63;;;1.90;;
57663;SDS011;43493;53.098;6.064;2022-09-13T05:48:56;7.07;;;2.13;;
57663;SDS011;43493;53.098;6.064;2022-09-13T05:51:22;6.53;;;2.23;;
57663;SDS011;43493;53.098;6.064;2022-09-13T05:53:49;5.03;;;2.17;;
57663;SDS011;43493;53.098;6.064;2022-09-13T05:56:26;8.50;;;2.20;;
57663;SDS011;43493;53.098;6.064;2022-09-13T05:58:53;5.07;;;2.17;;
57663;SDS011;43493;53.098;6.064;2022-09-13T06:01:20;4.97;;;2.00;;
57663;SDS011;43493;53.098;6.064;2022-09-13T06:03:48;6.07;;;1.97;;
57663;SDS011;43493;53.098;6.064;2022-09-13T06:06:15;9.60;;;2.43;;
57663;SDS011;43493;53.098;6.064;2022-09-13T06:08:41;8.70;;;2.00;;
57663;SDS011;43493;53.098;6.064;2022-09-13T06:11:08;6.93;;;2.50;;
57663;SDS011;43493;53.098;6.064;2022-09-13T06:13:35;4.07;;;1.93;;
57663;SDS011;43493;53.098;6.064;2022-09-13T06:16:03;8.50;;;2.30;;
57663;SDS011;43493;53.098;6.064;2022-09-13T06:18:30;5.03;;;2.20;;
57663;SDS011;43493;53.098;6.064;2022-09-13T06:20:57;6.57;;;2.40;;
57663;SDS011;43493;53.098;6.064;2022-09-13T06:23:30;6.80;;;2.38;;
57663;SDS011;43493;53.098;6.064;2022-09-13T06:26:00;7.77;;;2.70;;
57663;SDS011;43493;53.098;6.064;2022-09-13T06:28:27;8.57;;;2.47;;
57663;SDS011;43493;53.098;6.064;2022-09-13T06:30:58;10.17;;;3.03;;
57663;SDS011;43493;53.098;6.064;2022-09-13T06:33:43;8.63;;;2.50;;
57663;SDS011;43493;53.098;6.064;2022-09-13T06:36:10;8.87;;;2.63;;
57663;SDS011;43493;53.098;6.064;2022-09-13T06:38:42;6.80;;;2.20;;
57663;SDS011;43493;53.098;6.064;2022-09-13T06:41:12;7.50;;;2.37;;
57663;SDS011;43493;53.098;6.064;2022-09-13T06:43:42;8.75;;;2.85;;
57663;SDS011;43493;53.098;6.064;2022-09-13T06:46:12;8.97;;;2.53;;
57663;SDS011;43493;53.098;6.064;2022-09-13T06:48:40;11.13;;;3.47;;
57663;SDS011;43493;53.098;6.064;2022-09-13T06:51:08;13.20;;;4.73;;
57663;SDS011;43493;53.098;6.064;2022-09-13T06:53:36;11.17;;;4.27;;
57663;SDS011;43493;53.098;6.064;2022-09-13T06:56:06;9.00;;;2.50;;
57663;SDS011;43493;53.098;6.064;2022-09-13T07:01:04;6.37;;;2.10;;
57663;SDS011;43493;53.098;6.064;2022-09-13T07:03:42;5.20;;;1.80;;
57663;SDS011;43493;53.098;6.064;2022-09-13T07:06:09;5.83;;;1.57;;
57663;SDS011;43493;53.098;6.064;2022-09-13T07:08:36;4.67;;;1.63;;
57663;SDS011;43493;53.098;6.064;2022-09-13T07:11:02;9.50;;;1.63;;
57663;SDS011;43493;53.098;6.064;2022-09-13T07:13:28;7.53;;;2.03;;
57663;SDS011;43493;53.098;6.064;2022-09-13T07:15:54;5.53;;;1.40;;
57663;SDS011;43493;53.098;6.064;2022-09-13T07:18:21;5.00;;;1.40;;
57663;SDS011;43493;53.098;6.064;2022-09-13T07:20:47;6.47;;;1.37;;
57663;SDS011;43493;53.098;6.064;2022-09-13T07:23:14;8.83;;;1.90;;
57663;SDS011;43493;53.098;6.064;2022-09-13T07:25:40;7.57;;;1.60;;
57663;SDS011;43493;53.098;6.064;2022-09-13T07:28:06;5.60;;;1.30;;
57663;SDS011;43493;53.098;6.064;2022-09-13T07:30:32;6.20;;;1.50;;
57663;SDS011;43493;53.098;6.064;2022-09-13T07:32:58;8.00;;;1.27;;
57663;SDS011;43493;53.098;6.064;2022-09-13T07:35:24;7.23;;;1.50;;
57663;SDS011;43493;53.098;6.064;2022-09-13T07:37:50;7.33;;;1.37;;
57663;SDS011;43493;53.098;6.064;2022-09-13T07:40:16;6.30;;;1.60;;
57663;SDS011;43493;53.098;6.064;2022-09-13T07:42:42;7.10;;;2.03;;
57663;SDS011;43493;53.098;6.064;2022-09-13T07:45:09;5.03;;;1.13;;
57663;SDS011;43493;53.098;6.064;2022-09-13T07:47:36;5.57;;;1.30;;
57663;SDS011;43493;53.098;6.064;2022-09-13T07:50:02;6.30;;;1.67;;
57663;SDS011;43493;53.098;6.064;2022-09-13T07:52:28;7.37;;;1.37;;
57663;SDS011;43493;53.098;6.064;2022-09-13T07:54:54;6.67;;;1.43;;
57663;SDS011;43493;53.098;6.064;2022-09-13T07:57:20;7.60;;;1.33;;
57663;SDS011;43493;53.098;6.064;2022-09-13T07:59:46;4.97;;;1.23;;
57663;SDS011;43493;53.098;6.064;2022-09-13T08:02:12;5.40;;;1.40;;
57663;SDS011;43493;53.098;6.064;2022-09-13T08:04:40;6.53;;;1.70;;
57663;SDS011;43493;53.098;6.064;2022-09-13T08:07:06;6.60;;;1.53;;
57663;SDS011;43493;53.098;6.064;2022-09-13T08:09:32;6.37;;;1.10;;
57663;SDS011;43493;53.098;6.064;2022-09-13T08:11:58;8.27;;;1.50;;
57663;SDS011;43493;53.098;6.064;2022-09-13T08:14:24;6.33;;;1.17;;
57663;SDS011;43493;53.098;6.064;2022-09-13T08:16:53;9.97;;;1.97;;
57663;SDS011;43493;53.098;6.064;2022-09-13T08:19:20;8.63;;;1.60;;
57663;SDS011;43493;53.098;6.064;2022-09-13T08:21:46;6.37;;;1.40;;
57663;SDS011;43493;53.098;6.064;2022-09-13T08:24:13;7.97;;;1.70;;
57663;SDS011;43493;53.098;6.064;2022-09-13T08:26:40;6.13;;;1.60;;
57663;SDS011;43493;53.098;6.064;2022-09-13T08:29:06;6.53;;;1.37;;
57663;SDS011;43493;53.098;6.064;2022-09-13T08:31:32;5.43;;;1.23;;
57663;SDS011;43493;53.098;6.064;2022-09-13T08:33:59;9.27;;;1.40;;
57663;SDS011;43493;53.098;6.064;2022-09-13T08:36:26;3.47;;;1.10;;
57663;SDS011;43493;53.098;6.064;2022-09-13T08:38:53;7.63;;;1.60;;
57663;SDS011;43493;53.098;6.064;2022-09-13T08:49:04;11.10;;;1.40;;
57663;SDS011;43493;53.098;6.064;2022-09-13T08:54:11;8.27;;;1.30;;
57663;SDS011;43493;53.098;6.064;2022-09-13T08:57:00;6.33;;;1.23;;
57663;SDS011;43493;53.098;6.064;2022-09-13T08:59:32;5.50;;;1.33;;
57663;SDS011;43493;53.098;6.064;2022-09-13T09:07:35;10.40;;;1.47;;
57663;SDS011;43493;53.098;6.064;2022-09-13T09:10:10;5.47;;;1.37;;
57663;SDS011;43493;53.098;6.064;2022-09-13T09:12:48;5.70;;;1.63;;
57663;SDS011;43493;53.098;6.064;2022-09-13T09:21:05;6.30;;;1.43;;
57663;SDS011;43493;53.098;6.064;2022-09-13T09:23:40;7.47;;;1.57;;
57663;SDS011;43493;53.098;6.064;2022-09-13T09:26:15;7.30;;;1.73;;
57663;SDS011;43493;53.098;6.064;2022-09-13T09:28:46;5.28;;;1.70;;
57663;SDS011;43493;53.098;6.064;2022-09-13T09:31:42;5.37;;;1.43;;
57663;SDS011;43493;53.098;6.064;2022-09-13T09:37:07;5.90;;;1.50;;
57663;SDS011;43493;53.098;6.064;2022-09-13T09:39:51;7.33;;;1.50;;
57663;SDS011;43493;53.098;6.064;2022-09-13T09:42:26;8.17;;;1.70;;
57663;SDS011;43493;53.098;6.064;2022-09-13T09:45:02;5.80;;;1.57;;
57663;SDS011;43493;53.098;6.064;2022-09-13T09:47:38;6.70;;;1.47;;
57663;SDS011;43493;53.098;6.064;2022-09-13T09:50:10;4.63;;;1.50;;
57663;SDS011;43493;53.098;6.064;2022-09-13T09:55:29;7.40;;;1.47;;
57663;SDS011;43493;53.098;6.064;2022-09-13T09:58:01;5.97;;;1.20;;
57663;SDS011;43493;53.098;6.064;2022-09-13T10:00:49;7.50;;;1.90;;
57663;SDS011;43493;53.098;6.064;2022-09-13T10:03:18;7.20;;;1.80;;
57663;SDS011;43493;53.098;6.064;2022-09-13T10:05:45;5.70;;;1.37;;
57663;SDS011;43493;53.098;6.064;2022-09-13T10:08:27;9.40;;;1.57;;
57663;SDS011;43493;53.098;6.064;2022-09-13T10:10:57;6.00;;;1.93;;
57663;SDS011;43493;53.098;6.064;2022-09-13T10:13:25;9.90;;;1.67;;
57663;SDS011;43493;53.098;6.064;2022-09-13T10:18:25;6.07;;;1.40;;
57663;SDS011;43493;53.098;6.064;2022-09-13T10:21:05;8.40;;;1.33;;
57663;SDS011;43493;53.098;6.064;2022-09-13T10:23:45;7.17;;;1.40;;
57663;SDS011;43493;53.098;6.064;2022-09-13T10:26:17;6.50;;;1.50;;
57663;SDS011;43493;53.098;6.064;2022-09-13T10:31:40;6.73;;;1.50;;
57663;SDS011;43493;53.098;6.064;2022-09-13T10:34:19;9.70;;;2.10;;
57663;SDS011;43493;53.098;6.064;2022-09-13T10:37:18;7.87;;;1.57;;
57663;SDS011;43493;53.098;6.064;2022-09-13T10:39:50;4.53;;;1.30;;
57663;SDS011;43493;53.098;6.064;2022-09-13T10:42:23;6.93;;;1.50;;
57663;SDS011;43493;53.098;6.064;2022-09-13T10:45:00;6.87;;;1.13;;
57663;SDS011;43493;53.098;6.064;2022-09-13T10:47:28;8.67;;;2.03;;
57663;SDS011;43493;53.098;6.064;2022-09-13T10:49:57;5.13;;;1.27;;
57663;SDS011;43493;53.098;6.064;2022-09-13T10:52:58;7.33;;;1.50;;
57663;SDS011;43493;53.098;6.064;2022-09-13T10:55:27;6.17;;;1.73;;
57663;SDS011;43493;53.098;6.064;2022-09-13T11:05:28;8.67;;;1.90;;
57663;SDS011;43493;53.098;6.064;2022-09-13T11:08:18;7.70;;;1.63;;
57663;SDS011;43493;53.098;6.064;2022-09-13T11:11:10;8.77;;;1.40;;
57663;SDS011;43493;53.098;6.064;2022-09-13T11:17:02;7.60;;;1.73;;
57663;SDS011;43493;53.098;6.064;2022-09-13T11:19:57;5.93;;;1.43;;
57663;SDS011;43493;53.098;6.064;2022-09-13T11:23:38;11.68;;;1.85;;
57663;SDS011;43493;53.098;6.064;2022-09-13T11:36:36;6.97;;;1.60;;
57663;SDS011;43493;53.098;6.064;2022-09-13T11:39:18;7.83;;;2.03;;
57663;SDS011;43493;53.098;6.064;2022-09-13T11:47:35;9.47;;;1.67;;
57663;SDS011;43493;53.098;6.064;2022-09-13T11:55:46;6.40;;;1.80;;
57663;SDS011;43493;53.098;6.064;2022-09-13T12:01:38;12.57;;;1.95;;
57663;SDS011;43493;53.098;6.064;2022-09-13T12:04:14;7.47;;;1.87;;
57663;SDS011;43493;53.098;6.064;2022-09-13T12:07:09;9.93;;;2.00;;
57663;SDS011;43493;53.098;6.064;2022-09-13T12:09:42;8.67;;;1.70;;
57663;SDS011;43493;53.098;6.064;2022-09-13T12:12:17;10.13;;;1.90;;
57663;SDS011;43493;53.098;6.064;2022-09-13T12:15:04;11.47;;;2.23;;
57663;SDS011;43493;53.098;6.064;2022-09-13T12:17:42;10.80;;;2.20;;
57663;SDS011;43493;53.098;6.064;2022-09-13T12:20:32;8.57;;;1.87;;
57663;SDS011;43493;53.098;6.064;2022-09-13T12:23:02;7.37;;;1.77;;
57663;SDS011;43493;53.098;6.064;2022-09-13T12:25:41;12.37;;;1.83;;
57663;SDS011;43493;53.098;6.064;2022-09-13T12:30:54;7.30;;;1.73;;
57663;SDS011;43493;53.098;6.064;2022-09-13T12:33:24;10.27;;;2.27;;
57663;SDS011;43493;53.098;6.064;2022-09-13T12:41:30;7.32;;;1.77;;
57663;SDS011;43493;53.098;6.064;2022-09-13T12:52:40;6.67;;;1.77;;
57663;SDS011;43493;53.098;6.064;2022-09-13T13:01:13;6.97;;;1.30;;
57663;SDS011;43493;53.098;6.064;2022-09-13T13:03:57;9.10;;;1.90;;
57663;SDS011;43493;53.098;6.064;2022-09-13T13:06:38;6.47;;;2.23;;
57663;SDS011;43493;53.098;6.064;2022-09-13T13:09:33;5.83;;;1.60;;
57663;SDS011;43493;53.098;6.064;2022-09-13T13:12:09;10.67;;;3.40;;
57663;SDS011;43493;53.098;6.064;2022-09-13T13:33:47;7.47;;;2.13;;
57663;SDS011;43493;53.098;6.064;2022-09-13T13:36:31;8.93;;;2.07;;
57663;SDS011;43493;53.098;6.064;2022-09-13T13:41:54;6.43;;;1.70;;
57663;SDS011;43493;53.098;6.064;2022-09-13T13:57:59;6.93;;;1.53;;
57663;SDS011;43493;53.098;6.064;2022-09-13T14:00:28;8.33;;;1.90;;
57663;SDS011;43493;53.098;6.064;2022-09-13T14:19:23;7.38;;;2.03;;
57663;SDS011;43493;53.098;6.064;2022-09-13T14:24:38;6.77;;;1.87;;
57663;SDS011;43493;53.098;6.064;2022-09-13T14:29:55;11.20;;;2.07;;
57663;SDS011;43493;53.098;6.064;2022-09-13T14:32:26;9.30;;;1.80;;
57663;SDS011;43493;53.098;6.064;2022-09-13T14:34:55;9.63;;;1.80;;
57663;SDS011;43493;53.098;6.064;2022-09-13T14:37:31;7.63;;;1.83;;
57663;SDS011;43493;53.098;6.064;2022-09-13T14:40:00;7.40;;;1.77;;
57663;SDS011;43493;53.098;6.064;2022-09-13T14:42:39;10.43;;;1.90;;
57663;SDS011;43493;53.098;6.064;2022-09-13T14:45:13;12.77;;;2.85;;
57663;SDS011;43493;53.098;6.064;2022-09-13T14:50:51;7.45;;;2.03;;
57663;SDS011;43493;53.098;6.064;2022-09-13T14:53:48;10.80;;;2.20;;
57663;SDS011;43493;53.098;6.064;2022-09-13T14:56:26;6.77;;;1.70;;
57663;SDS011;43493;53.098;6.064;2022-09-13T14:59:11;7.17;;;1.80;;
57663;SDS011;43493;53.098;6.064;2022-09-13T15:02:01;6.67;;;1.70;;
57663;SDS011;43493;53.098;6.064;2022-09-13T15:04:31;6.13;;;1.67;;
57663;SDS011;43493;53.098;6.064;2022-09-13T15:07:08;7.73;;;1.97;;
57663;SDS011;43493;53.098;6.064;2022-09-13T15:09:57;8.07;;;1.77;;
57663;SDS011;43493;53.098;6.064;2022-09-13T15:12:32;9.40;;;1.70;;
57663;SDS011;43493;53.098;6.064;2022-09-13T15:17:53;6.25;;;1.88;;
57663;SDS011;43493;53.098;6.064;2022-09-13T15:20:19;10.70;;;1.93;;
57663;SDS011;43493;53.098;6.064;2022-09-13T15:22:46;8.13;;;1.80;;
57663;SDS011;43493;53.098;6.064;2022-09-13T15:25:27;8.00;;;1.97;;
57663;SDS011;43493;53.098;6.064;2022-09-13T15:27:56;8.77;;;1.87;;
57663;SDS011;43493;53.098;6.064;2022-09-13T15:30:29;6.30;;;2.13;;
57663;SDS011;43493;53.098;6.064;2022-09-13T15:33:05;6.40;;;1.60;;
57663;SDS011;43493;53.098;6.064;2022-09-13T15:35:43;4.43;;;1.37;;
57663;SDS011;43493;53.098;6.064;2022-09-13T15:40:58;10.53;;;2.00;;
57663;SDS011;43493;53.098;6.064;2022-09-13T15:43:26;9.07;;;1.60;;
57663;SDS011;43493;53.098;6.064;2022-09-13T15:45:52;8.20;;;1.77;;
57663;SDS011;43493;53.098;6.064;2022-09-13T15:48:27;9.13;;;1.57;;
57663;SDS011;43493;53.098;6.064;2022-09-13T15:51:06;5.73;;;1.50;;
57663;SDS011;43493;53.098;6.064;2022-09-13T15:53:33;8.10;;;1.93;;
57663;SDS011;43493;53.098;6.064;2022-09-13T15:56:00;7.57;;;1.83;;
57663;SDS011;43493;53.098;6.064;2022-09-13T15:58:27;9.67;;;1.70;;
57663;SDS011;43493;53.098;6.064;2022-09-13T16:00:53;5.40;;;1.50;;
57663;SDS011;43493;53.098;6.064;2022-09-13T16:03:18;11.10;;;1.90;;
57663;SDS011;43493;53.098;6.064;2022-09-13T16:05:44;11.97;;;2.03;;
57663;SDS011;43493;53.098;6.064;2022-09-13T16:08:10;7.97;;;1.70;;
57663;SDS011;43493;53.098;6.064;2022-09-13T16:10:36;5.17;;;1.50;;
57663;SDS011;43493;53.098;6.064;2022-09-13T16:13:02;7.97;;;1.40;;
57663;SDS011;43493;53.098;6.064;2022-09-13T16:15:28;8.97;;;1.97;;
57663;SDS011;43493;53.098;6.064;2022-09-13T16:17:54;8.20;;;1.43;;
57663;SDS011;43493;53.098;6.064;2022-09-13T16:20:20;9.07;;;1.60;;
57663;SDS011;43493;53.098;6.064;2022-09-13T16:22:46;7.67;;;1.50;;
57663;SDS011;43493;53.098;6.064;2022-09-13T16:25:12;8.67;;;1.70;;
57663;SDS011;43493;53.098;6.064;2022-09-13T16:27:39;8.23;;;1.73;;
57663;SDS011;43493;53.098;6.064;2022-09-13T16:30:08;5.50;;;1.57;;
57663;SDS011;43493;53.098;6.064;2022-09-13T16:32:36;5.23;;;1.50;;
57663;SDS011;43493;53.098;6.064;2022-09-13T16:35:03;8.63;;;1.50;;
57663;SDS011;43493;53.098;6.064;2022-09-13T16:37:29;9.97;;;2.20;;
57663;SDS011;43493;53.098;6.064;2022-09-13T16:39:55;7.53;;;1.53;;
57663;SDS011;43493;53.098;6.064;2022-09-13T16:42:22;7.60;;;1.53;;
57663;SDS011;43493;53.098;6.064;2022-09-13T16:44:48;8.03;;;1.93;;
57663;SDS011;43493;53.098;6.064;2022-09-13T16:47:14;8.23;;;1.90;;
57663;SDS011;43493;53.098;6.064;2022-09-13T16:49:40;7.07;;;1.90;;
57663;SDS011;43493;53.098;6.064;2022-09-13T16:52:06;8.20;;;1.50;;
57663;SDS011;43493;53.098;6.064;2022-09-13T16:54:33;5.77;;;1.70;;
57663;SDS011;43493;53.098;6.064;2022-09-13T16:57:03;7.07;;;1.83;;
57663;SDS011;43493;53.098;6.064;2022-09-13T16:59:30;6.87;;;1.80;;
57663;SDS011;43493;53.098;6.064;2022-09-13T17:01:57;9.40;;;1.70;;
57663;SDS011;43493;53.098;6.064;2022-09-13T17:04:23;10.50;;;1.70;;
57663;SDS011;43493;53.098;6.064;2022-09-13T17:06:49;8.40;;;1.67;;
57663;SDS011;43493;53.098;6.064;2022-09-13T17:09:15;11.13;;;2.13;;
57663;SDS011;43493;53.098;6.064;2022-09-13T17:11:42;12.27;;;2.00;;
57663;SDS011;43493;53.098;6.064;2022-09-13T17:14:09;4.63;;;1.47;;
57663;SDS011;43493;53.098;6.064;2022-09-13T17:16:38;10.27;;;2.03;;
57663;SDS011;43493;53.098;6.064;2022-09-13T17:19:08;4.33;;;1.20;;
57663;SDS011;43493;53.098;6.064;2022-09-13T17:21:37;6.43;;;1.60;;
57663;SDS011;43493;53.098;6.064;2022-09-13T17:24:04;5.20;;;1.60;;
57663;SDS011;43493;53.098;6.064;2022-09-13T17:26:30;5.80;;;1.40;;
57663;SDS011;43493;53.098;6.064;2022-09-13T17:28:56;6.93;;;1.83;;
57663;SDS011;43493;53.098;6.064;2022-09-13T17:31:21;7.93;;;1.47;;
57663;SDS011;43493;53.098;6.064;2022-09-13T17:33:47;7.93;;;1.93;;
57663;SDS011;43493;53.098;6.064;2022-09-13T17:36:14;7.47;;;1.53;;
57663;SDS011;43493;53.098;6.064;2022-09-13T17:38:40;5.23;;;1.43;;
57663;SDS011;43493;53.098;6.064;2022-09-13T17:43:36;7.17;;;1.77;;
57663;SDS011;43493;53.098;6.064;2022-09-13T17:46:03;5.97;;;1.20;;
57663;SDS011;43493;53.098;6.064;2022-09-13T17:48:30;7.77;;;1.27;;
57663;SDS011;43493;53.098;6.064;2022-09-13T17:51:01;5.70;;;1.30;;
57663;SDS011;43493;53.098;6.064;2022-09-13T17:53:38;6.95;;;1.30;;
57663;SDS011;43493;53.098;6.064;2022-09-13T17:56:15;7.27;;;1.37;;
57663;SDS011;43493;53.098;6.064;2022-09-13T17:58:45;7.47;;;1.50;;
57663;SDS011;43493;53.098;6.064;2022-09-13T18:01:12;9.33;;;2.77;;
57663;SDS011;43493;53.098;6.064;2022-09-13T18:03:38;10.83;;;2.17;;
57663;SDS011;43493;53.098;6.064;2022-09-13T18:06:04;8.97;;;2.17;;
57663;SDS011;43493;53.098;6.064;2022-09-13T18:08:33;5.97;;;1.20;;
57663;SDS011;43493;53.098;6.064;2022-09-13T18:11:10;7.33;;;1.27;;
57663;SDS011;43493;53.098;6.064;2022-09-13T18:13:37;6.40;;;1.40;;
57663;SDS011;43493;53.098;6.064;2022-09-13T18:16:05;6.60;;;1.20;;
57663;SDS011;43493;53.098;6.064;2022-09-13T18:18:33;7.00;;;1.40;;
57663;SDS011;43493;53.098;6.064;2022-09-13T18:20:59;7.50;;;1.50;;
57663;SDS011;43493;53.098;6.064;2022-09-13T18:23:25;5.93;;;1.93;;
57663;SDS011;43493;53.098;6.064;2022-09-13T18:26:02;4.93;;;1.30;;
57663;SDS011;43493;53.098;6.064;2022-09-13T18:28:30;5.50;;;1.30;;
57663;SDS011;43493;53.098;6.064;2022-09-13T18:30:57;7.37;;;2.00;;